createdAt,value
2023-06-09T00:01:47.090Z,7.78
2023-06-09T00:04:14.670Z,7.93
2023-06-09T00:06:42.085Z,8.18
2023-06-09T00:09:09.333Z,7.68
2023-06-09T00:11:36.598Z,7.85
2023-06-09T00:14:04.123Z,7.93
2023-06-09T00:16:31.502Z,7.90
2023-06-09T00:18:58.804Z,8.30
2023-06-09T00:21:26.465Z,8.63
2023-06-09T00:23:53.788Z,7.93
2023-06-09T00:26:21.049Z,8.23
2023-06-09T00:28:48.323Z,8.10
2023-06-09T00:31:15.641Z,8.27
2023-06-09T00:33:42.871Z,8.63
2023-06-09T00:36:10.028Z,8.07
2023-06-09T00:38:37.366Z,8.57
2023-06-09T00:41:04.608Z,8.07
2023-06-09T00:43:31.773Z,8.13
2023-06-09T00:46:00.731Z,8.10
2023-06-09T00:48:28.150Z,8.68
2023-06-09T00:50:56.946Z,9.25
2023-06-09T00:53:24.231Z,8.88
2023-06-09T00:55:51.940Z,8.35
2023-06-09T00:58:19.701Z,8.18
2023-06-09T01:00:47.425Z,8.65
2023-06-09T01:03:14.735Z,8.70
2023-06-09T01:05:45.550Z,9.15
2023-06-09T01:08:20.815Z,9.30
2023-06-09T01:11:06.717Z,9.07
2023-06-09T01:13:33.971Z,8.88
2023-06-09T01:16:27.658Z,9.25
2023-06-09T01:18:55.297Z,9.35
2023-06-09T01:21:43.025Z,9.90
2023-06-09T01:24:31.994Z,9.05
2023-06-09T01:27:02.261Z,9.05
2023-06-09T01:29:34.046Z,9.75
2023-06-09T01:32:03.546Z,9.00
2023-06-09T01:34:31.252Z,10.35
2023-06-09T01:36:59.239Z,9.95
2023-06-09T01:39:27.211Z,9.95
2023-06-09T01:41:54.647Z,10.15
2023-06-09T01:44:21.979Z,10.35
2023-06-09T01:46:49.221Z,10.77
2023-06-09T01:49:19.877Z,10.57
2023-06-09T01:51:54.496Z,9.88
2023-06-09T01:54:26.088Z,10.43
2023-06-09T01:56:58.261Z,10.27
2023-06-09T01:59:30.041Z,10.25
2023-06-09T02:01:57.843Z,9.63
2023-06-09T02:04:25.883Z,9.95
2023-06-09T02:06:53.621Z,10.52
2023-06-09T02:09:21.489Z,10.45
2023-06-09T02:11:52.761Z,10.05
2023-06-09T02:14:20.284Z,10.40
2023-06-09T02:16:48.516Z,10.23
2023-06-09T02:19:18.023Z,9.75
2023-06-09T02:21:45.323Z,10.10
2023-06-09T02:24:12.589Z,10.55
2023-06-09T02:26:39.858Z,10.55
2023-06-09T02:29:07.118Z,10.52
2023-06-09T02:31:34.395Z,9.98
2023-06-09T02:34:01.763Z,10.15
2023-06-09T02:36:28.982Z,10.85
2023-06-09T02:38:56.258Z,11.10
2023-06-09T02:41:23.463Z,12.15
2023-06-09T02:43:50.644Z,13.02
2023-06-09T02:46:18.600Z,11.77
2023-06-09T02:48:46.235Z,12.30
2023-06-09T02:51:14.555Z,12.32
2023-06-09T02:53:42.054Z,11.75
2023-06-09T02:56:09.319Z,11.73
2023-06-09T02:58:36.599Z,11.55
2023-06-09T03:01:03.839Z,12.27
2023-06-09T03:03:31.810Z,10.40
2023-06-09T03:05:59.737Z,10.80
2023-06-09T03:08:27.010Z,10.95
2023-06-09T03:10:54.694Z,11.45
2023-06-09T03:13:23.068Z,17.15
2023-06-09T03:15:51.326Z,11.13
2023-06-09T03:18:18.693Z,17.70
2023-06-09T03:20:46.538Z,12.18
2023-06-09T03:23:14.925Z,10.90
2023-06-09T03:25:42.173Z,9.52
2023-06-09T03:28:09.446Z,8.82
2023-06-09T03:30:36.777Z,8.05
2023-06-09T03:33:03.995Z,8.90
2023-06-09T03:35:31.273Z,8.20
2023-06-09T03:37:58.434Z,7.50
2023-06-09T03:40:25.686Z,8.02
2023-06-09T03:42:52.885Z,7.47
2023-06-09T03:45:20.063Z,7.55
2023-06-09T03:47:47.561Z,8.02
2023-06-09T03:50:14.790Z,8.15
2023-06-09T03:52:42.009Z,7.32
2023-06-09T03:55:09.376Z,7.63
2023-06-09T03:57:36.647Z,7.55
2023-06-09T04:00:04.742Z,7.85
2023-06-09T04:02:32.362Z,7.70
2023-06-09T04:05:00.051Z,7.20
2023-06-09T04:07:31.240Z,7.40
2023-06-09T04:09:58.647Z,7.10
2023-06-09T04:12:25.804Z,7.40
2023-06-09T04:14:53.039Z,7.40
2023-06-09T04:17:20.259Z,7.38
2023-06-09T04:19:47.504Z,6.90
2023-06-09T04:22:14.673Z,7.25
2023-06-09T04:24:41.907Z,6.78
2023-06-09T04:27:09.922Z,7.05
2023-06-09T04:29:37.155Z,6.82
2023-06-09T04:32:08.601Z,6.63
2023-06-09T04:34:40.218Z,6.50
2023-06-09T04:37:09.595Z,6.53
2023-06-09T04:39:36.980Z,6.93
2023-06-09T04:42:08.735Z,6.70
2023-06-09T04:44:37.209Z,6.60
2023-06-09T04:47:04.564Z,6.13
2023-06-09T04:49:32.333Z,7.07
2023-06-09T04:52:00.344Z,6.10
2023-06-09T04:54:29.982Z,6.60
2023-06-09T04:57:02.889Z,6.70
2023-06-09T05:01:57.953Z,6.13
2023-06-09T05:04:25.196Z,6.18
2023-06-09T05:06:52.605Z,5.95
2023-06-09T05:09:20.048Z,5.88
2023-06-09T05:11:47.225Z,6.03
2023-06-09T05:14:14.388Z,5.32
2023-06-09T05:16:42.905Z,5.93
2023-06-09T05:19:10.320Z,5.43
2023-06-09T05:21:37.994Z,5.20
2023-06-09T05:24:05.879Z,5.63
2023-06-09T05:26:33.761Z,4.75
2023-06-09T05:29:01.435Z,5.03
2023-06-09T05:31:28.696Z,4.65
2023-06-09T05:33:55.884Z,5.40
2023-06-09T05:36:23.149Z,4.88
2023-06-09T05:38:50.598Z,5.10
2023-06-09T05:41:17.839Z,4.90
2023-06-09T05:43:45.242Z,5.00
2023-06-09T05:46:12.553Z,5.22
2023-06-09T05:48:39.792Z,4.90
2023-06-09T05:51:07.596Z,4.68
2023-06-09T05:53:35.344Z,5.05
2023-06-09T05:56:03.555Z,5.25
2023-06-09T05:58:34.947Z,4.45
2023-06-09T06:01:04.648Z,4.60
2023-06-09T06:03:34.383Z,4.82
2023-06-09T06:06:01.914Z,4.25
2023-06-09T06:08:29.155Z,4.10
2023-06-09T06:10:56.407Z,4.18
2023-06-09T06:13:23.643Z,3.95
2023-06-09T06:15:50.812Z,4.43
2023-06-09T06:18:18.038Z,3.95
2023-06-09T06:20:45.212Z,4.07
2023-06-09T06:23:12.539Z,3.97
2023-06-09T06:25:42.600Z,4.05
2023-06-09T06:28:12.143Z,3.75
2023-06-09T06:30:39.388Z,3.67
2023-06-09T06:33:07.756Z,3.55
2023-06-09T06:35:35.331Z,3.50
2023-06-09T06:38:02.997Z,3.42
2023-06-09T06:40:30.750Z,3.33
2023-06-09T06:42:58.020Z,3.45
2023-06-09T06:45:27.447Z,3.92
2023-06-09T06:47:55.152Z,3.78
2023-06-09T06:50:24.859Z,3.65
2023-06-09T06:52:53.371Z,3.83
2023-06-09T06:55:20.623Z,3.78
2023-06-09T06:57:47.833Z,3.83
2023-06-09T07:00:16.251Z,3.55
2023-06-09T07:02:46.734Z,3.55
2023-06-09T07:05:15.296Z,3.30
2023-06-09T07:07:42.713Z,3.80
2023-06-09T07:10:10.368Z,4.03
2023-06-09T07:12:37.805Z,3.50
2023-06-09T07:15:06.102Z,3.63
2023-06-09T07:17:33.519Z,3.58
2023-06-09T07:20:01.351Z,3.90
2023-06-09T07:22:29.401Z,3.92
2023-06-09T07:24:57.332Z,3.55
2023-06-09T07:27:24.799Z,4.05
2023-06-09T07:29:52.036Z,3.92
2023-06-09T07:32:19.445Z,3.67
2023-06-09T07:34:46.831Z,3.60
2023-06-09T07:37:14.652Z,3.58
2023-06-09T07:39:42.243Z,4.00
2023-06-09T07:42:09.560Z,4.00
2023-06-09T07:44:36.734Z,4.05
2023-06-09T07:47:04.456Z,4.25
2023-06-09T07:49:31.661Z,4.05
2023-06-09T07:52:04.048Z,3.72
2023-06-09T07:54:35.580Z,3.85
2023-06-09T07:57:02.970Z,4.10
2023-06-09T07:59:30.138Z,4.20
2023-06-09T08:01:57.341Z,4.03
2023-06-09T08:04:24.630Z,3.28
2023-06-09T08:06:51.970Z,4.10
2023-06-09T08:09:19.232Z,4.35
2023-06-09T08:11:46.426Z,3.97
2023-06-09T08:14:14.258Z,3.97
2023-06-09T08:16:41.583Z,4.22
2023-06-09T08:19:08.908Z,3.97
2023-06-09T08:21:36.321Z,3.95
2023-06-09T08:24:05.582Z,3.88
2023-06-09T08:26:32.861Z,3.78
2023-06-09T08:29:00.041Z,3.90
2023-06-09T08:31:29.078Z,4.03
2023-06-09T08:33:56.496Z,3.92
2023-06-09T08:36:24.443Z,4.10
2023-06-09T08:38:51.627Z,3.90
2023-06-09T08:41:22.103Z,4.22
2023-06-09T08:43:49.673Z,3.90
2023-06-09T08:46:17.413Z,4.20
2023-06-09T08:48:50.345Z,3.80
2023-06-09T08:51:18.011Z,3.90
2023-06-09T08:53:46.252Z,4.13
2023-06-09T08:56:13.882Z,3.65
2023-06-09T08:58:42.331Z,3.85
2023-06-09T09:01:09.773Z,3.20
2023-06-09T09:03:37.133Z,2.60
2023-06-09T09:06:04.515Z,3.42
2023-06-09T09:08:31.732Z,3.00
2023-06-09T09:10:59.110Z,2.90
2023-06-09T09:13:33.412Z,2.90
2023-06-09T09:16:03.895Z,2.63
2023-06-09T09:18:32.217Z,2.97
2023-06-09T09:21:00.051Z,2.92
2023-06-09T09:23:31.841Z,2.50
2023-06-09T09:26:04.303Z,2.80
2023-06-09T09:28:41.416Z,2.90
2023-06-09T09:31:12.495Z,2.90
2023-06-09T09:33:47.212Z,2.55
2023-06-09T09:36:14.385Z,3.13
2023-06-09T09:38:45.656Z,2.67
2023-06-09T09:41:16.177Z,2.53
2023-06-09T09:43:43.599Z,2.95
2023-06-09T09:46:11.068Z,2.90
2023-06-09T09:48:39.294Z,2.90
2023-06-09T09:51:07.091Z,3.28
2023-06-09T09:53:34.954Z,2.90
2023-06-09T09:56:02.264Z,2.83
2023-06-09T09:58:30.942Z,3.03
2023-06-09T10:00:59.814Z,2.83
2023-06-09T10:03:27.236Z,2.70
2023-06-09T10:05:56.471Z,2.75
2023-06-09T10:08:27.712Z,2.67
2023-06-09T10:10:57.510Z,3.05
2023-06-09T10:13:28.907Z,2.72
2023-06-09T10:15:57.028Z,2.90
2023-06-09T10:18:24.684Z,2.58
2023-06-09T10:20:52.952Z,2.67
2023-06-09T10:23:20.863Z,2.67
2023-06-09T10:25:49.421Z,2.50
2023-06-09T10:28:20.000Z,2.60
2023-06-09T10:30:48.594Z,2.50
2023-06-09T10:33:22.847Z,2.70
2023-06-09T10:35:50.933Z,2.40
2023-06-09T10:38:31.711Z,2.50
2023-06-09T10:41:31.769Z,2.22
2023-06-09T10:44:04.144Z,2.53
2023-06-09T10:46:44.134Z,2.53
2023-06-09T10:49:26.820Z,2.20
2023-06-09T10:51:54.446Z,2.38
2023-06-09T10:54:23.009Z,2.40
2023-06-09T10:56:53.826Z,2.70
2023-06-09T10:59:26.960Z,2.63
2023-06-09T11:02:03.651Z,3.08
2023-06-09T11:04:50.338Z,2.88
2023-06-09T11:07:21.854Z,2.97
2023-06-09T11:09:52.143Z,2.88
2023-06-09T11:12:28.480Z,3.05
2023-06-09T11:15:00.213Z,2.88
2023-06-09T11:17:44.602Z,3.10
2023-06-09T11:20:13.452Z,3.15
2023-06-09T11:22:47.510Z,3.00
2023-06-09T11:25:17.443Z,3.00
2023-06-09T11:27:48.758Z,2.90
2023-06-09T11:30:20.289Z,2.65
2023-06-09T11:32:48.486Z,3.35
2023-06-09T11:35:24.911Z,3.10
2023-06-09T11:37:52.673Z,3.10
2023-06-09T11:40:20.283Z,2.90
2023-06-09T11:42:47.674Z,2.80
2023-06-09T11:45:15.187Z,2.40
2023-06-09T11:47:43.320Z,2.70
2023-06-09T11:50:13.397Z,2.90
2023-06-09T11:52:44.443Z,2.72
2023-06-09T11:55:12.474Z,2.78
2023-06-09T11:57:39.879Z,2.80
2023-06-09T12:00:14.378Z,2.50
2023-06-09T12:02:46.503Z,2.55
2023-06-09T12:05:14.250Z,2.88
2023-06-09T12:07:45.909Z,2.63
2023-06-09T12:10:14.202Z,2.90
2023-06-09T12:12:48.081Z,2.60
2023-06-09T12:15:16.347Z,2.70
2023-06-09T12:17:44.450Z,2.40
2023-06-09T12:20:20.872Z,2.72
2023-06-09T12:22:48.197Z,2.63
2023-06-09T12:25:25.818Z,2.70
2023-06-09T12:27:56.866Z,3.10
2023-06-09T12:30:54.511Z,2.50
2023-06-09T12:33:33.762Z,2.63
2023-06-09T12:36:08.860Z,2.88
2023-06-09T12:38:38.393Z,3.20
2023-06-09T12:41:09.988Z,3.15
2023-06-09T12:43:46.528Z,2.80
2023-06-09T12:46:14.803Z,2.85
2023-06-09T12:49:03.908Z,3.00
2023-06-09T12:51:34.825Z,2.92
2023-06-09T12:54:02.065Z,3.35
2023-06-09T12:56:29.359Z,2.85
2023-06-09T12:58:56.706Z,2.95
2023-06-09T13:01:24.769Z,2.78
2023-06-09T13:03:52.112Z,2.75
2023-06-09T13:06:19.628Z,3.00
2023-06-09T13:08:47.039Z,2.80
2023-06-09T13:11:14.271Z,3.00
2023-06-09T13:13:42.189Z,3.10
2023-06-09T13:16:09.822Z,2.90
2023-06-09T13:18:39.796Z,3.30
2023-06-09T13:21:07.543Z,3.53
2023-06-09T13:23:34.910Z,3.50
2023-06-09T13:26:02.261Z,2.88
2023-06-09T13:28:29.578Z,2.67
2023-06-09T13:30:58.673Z,3.00
2023-06-09T13:33:25.978Z,2.83
2023-06-09T13:35:53.919Z,3.20
2023-06-09T13:38:21.296Z,2.65
2023-06-09T13:40:50.070Z,2.65
2023-06-09T13:43:18.095Z,2.83
2023-06-09T13:45:45.492Z,3.10
2023-06-09T13:48:12.904Z,3.13
2023-06-09T13:50:41.006Z,3.45
2023-06-09T13:53:08.332Z,3.33
2023-06-09T13:55:35.569Z,3.67
2023-06-09T13:58:02.820Z,3.25
2023-06-09T14:00:30.157Z,2.72
2023-06-09T14:02:57.870Z,3.58
2023-06-09T14:05:26.382Z,3.53
2023-06-09T14:07:53.676Z,2.92
2023-06-09T14:10:21.318Z,3.08
2023-06-09T14:12:49.458Z,3.50
2023-06-09T14:15:27.152Z,3.08
2023-06-09T14:17:55.842Z,3.00
2023-06-09T14:20:25.167Z,3.40
2023-06-09T14:22:52.441Z,3.33
2023-06-09T14:25:22.068Z,3.40
2023-06-09T14:27:50.326Z,3.70
2023-06-09T14:30:19.299Z,3.25
2023-06-09T14:32:48.643Z,3.40
2023-06-09T14:35:23.314Z,3.53
2023-06-09T14:37:51.830Z,3.55
2023-06-09T14:40:19.055Z,3.25
2023-06-09T14:42:49.955Z,3.25
2023-06-09T14:45:21.675Z,3.33
2023-06-09T14:47:53.557Z,3.37
2023-06-09T14:50:23.429Z,3.30
2023-06-09T14:52:53.160Z,3.17
2023-06-09T14:55:23.970Z,3.25
2023-06-09T14:57:54.769Z,3.20
2023-06-09T15:00:22.791Z,3.80
2023-06-09T15:02:57.521Z,3.55
2023-06-09T15:05:26.101Z,3.35
2023-06-09T15:07:57.502Z,3.20
2023-06-09T15:10:28.075Z,3.40
2023-06-09T15:12:55.429Z,3.35
2023-06-09T15:15:25.007Z,3.20
2023-06-09T15:17:52.495Z,3.55
2023-06-09T15:20:25.840Z,3.75
2023-06-09T15:22:58.382Z,3.50
2023-06-09T15:25:33.898Z,3.88
2023-06-09T15:28:02.006Z,3.40
2023-06-09T15:30:33.119Z,3.70
2023-06-09T15:33:04.407Z,3.85
2023-06-09T15:35:35.772Z,4.00
2023-06-09T15:38:04.819Z,3.65
2023-06-09T15:40:33.212Z,4.18
2023-06-09T15:43:02.793Z,3.70
2023-06-09T15:45:30.264Z,3.97
2023-06-09T15:47:57.566Z,3.80
2023-06-09T15:50:24.885Z,3.78
2023-06-09T15:52:52.049Z,3.38
2023-06-09T15:55:19.207Z,4.07
2023-06-09T15:57:46.370Z,3.90
2023-06-09T16:00:13.706Z,4.10
2023-06-09T16:02:41.004Z,3.88
2023-06-09T16:05:08.432Z,3.95
2023-06-09T16:07:35.832Z,4.00
2023-06-09T16:10:03.917Z,3.92
2023-06-09T16:12:31.098Z,4.03
2023-06-09T16:14:58.346Z,3.58
2023-06-09T16:17:25.665Z,3.63
2023-06-09T16:19:52.925Z,4.13
2023-06-09T16:22:20.121Z,4.13
2023-06-09T16:24:47.277Z,4.40
2023-06-09T16:27:14.495Z,4.30
2023-06-09T16:29:41.705Z,3.80
2023-06-09T16:32:08.911Z,3.92
2023-06-09T16:34:36.153Z,4.13
2023-06-09T16:37:03.401Z,4.47
2023-06-09T16:39:30.799Z,4.07
2023-06-09T16:41:58.047Z,3.97
2023-06-09T16:44:25.463Z,4.63
2023-06-09T16:46:52.683Z,7.57
2023-06-09T16:49:19.902Z,8.35
2023-06-09T16:51:47.122Z,4.00
2023-06-09T16:54:14.364Z,4.00
2023-06-09T16:56:41.563Z,4.47
2023-06-09T16:59:08.767Z,3.88
2023-06-09T17:01:36.081Z,4.28
2023-06-09T17:04:03.466Z,3.83
2023-06-09T17:06:30.708Z,4.50
2023-06-09T17:08:57.891Z,4.63
2023-06-09T17:11:25.089Z,4.53
2023-06-09T17:13:52.269Z,4.40
2023-06-09T17:16:19.544Z,4.70
2023-06-09T17:18:46.929Z,4.65
2023-06-09T17:21:14.126Z,4.90
2023-06-09T17:23:41.395Z,4.85
2023-06-09T17:26:08.731Z,4.13
2023-06-09T17:28:36.170Z,4.60
2023-06-09T17:31:03.427Z,4.00
2023-06-09T17:33:30.574Z,4.20
2023-06-09T17:35:57.834Z,4.50
2023-06-09T17:38:25.109Z,4.57
2023-06-09T17:40:52.299Z,4.68
2023-06-09T17:43:20.105Z,4.53
2023-06-09T17:45:47.476Z,4.63
2023-06-09T17:48:14.744Z,4.63
2023-06-09T17:50:43.054Z,4.57
2023-06-09T17:53:10.385Z,4.43
2023-06-09T17:55:37.609Z,4.78
2023-06-09T17:58:04.948Z,5.00
2023-06-09T18:00:32.198Z,4.47
2023-06-09T18:02:59.485Z,4.25
2023-06-09T18:05:26.862Z,4.13
2023-06-09T18:07:54.435Z,4.18
2023-06-09T18:10:21.593Z,4.40
2023-06-09T18:12:50.069Z,4.13
2023-06-09T18:15:17.423Z,4.20
2023-06-09T18:17:44.641Z,3.97
2023-06-09T18:20:13.040Z,4.63
2023-06-09T18:22:41.265Z,4.00
2023-06-09T18:25:08.860Z,3.85
2023-06-09T18:27:36.476Z,3.67
2023-06-09T18:30:03.961Z,4.53
2023-06-09T18:32:32.123Z,3.60
2023-06-09T18:34:59.429Z,4.20
2023-06-09T18:37:26.832Z,4.43
2023-06-09T18:39:53.977Z,4.20
2023-06-09T18:42:21.204Z,4.28
2023-06-09T18:44:48.387Z,4.30
2023-06-09T18:47:15.721Z,4.45
2023-06-09T18:49:43.517Z,4.20
2023-06-09T18:52:11.416Z,3.95
2023-06-09T18:54:38.816Z,3.78
2023-06-09T18:57:07.983Z,4.32
2023-06-09T18:59:35.365Z,4.32
2023-06-09T19:02:03.090Z,3.95
2023-06-09T19:04:30.722Z,4.20
2023-06-09T19:06:57.915Z,3.67
2023-06-09T19:09:25.209Z,3.85
2023-06-09T19:11:52.388Z,3.72
2023-06-09T19:14:19.561Z,4.05
2023-06-09T19:16:47.476Z,4.30
2023-06-09T19:19:14.752Z,4.30
2023-06-09T19:21:41.969Z,3.90
2023-06-09T19:24:09.652Z,3.97
2023-06-09T19:26:38.165Z,4.50
2023-06-09T19:29:05.466Z,4.38
2023-06-09T19:31:32.895Z,4.28
2023-06-09T19:34:01.692Z,4.05
2023-06-09T19:36:28.971Z,4.30
2023-06-09T19:38:57.298Z,4.18
2023-06-09T19:41:24.496Z,4.20
2023-06-09T19:43:51.636Z,4.40
2023-06-09T19:46:18.914Z,4.05
2023-06-09T19:48:46.149Z,4.95
2023-06-09T19:51:13.437Z,4.18
2023-06-09T19:53:40.843Z,4.80
2023-06-09T19:56:08.072Z,4.40
2023-06-09T19:58:35.301Z,4.30
2023-06-09T20:01:02.706Z,4.25
2023-06-09T20:03:29.993Z,4.40
2023-06-09T20:05:57.157Z,4.25
2023-06-09T20:08:24.499Z,4.18
2023-06-09T20:10:51.666Z,4.35
2023-06-09T20:13:19.044Z,4.22
2023-06-09T20:15:46.669Z,4.20
2023-06-09T20:18:14.083Z,4.18
2023-06-09T20:20:43.053Z,4.55
2023-06-09T20:23:11.673Z,4.10
2023-06-09T20:25:39.370Z,4.70
2023-06-09T20:28:06.567Z,4.30
2023-06-09T20:30:33.774Z,5.15
2023-06-09T20:33:01.052Z,5.05
2023-06-09T20:35:28.224Z,4.95
2023-06-09T20:37:55.551Z,4.63
2023-06-09T20:40:22.717Z,4.97
2023-06-09T20:42:49.936Z,4.95
2023-06-09T20:45:17.795Z,4.95
2023-06-09T20:47:45.524Z,5.10
2023-06-09T20:50:12.826Z,5.20
2023-06-09T20:52:40.019Z,4.95
2023-06-09T20:55:07.814Z,5.13
2023-06-09T20:57:35.848Z,4.82
2023-06-09T21:00:03.133Z,4.85
2023-06-09T21:02:30.478Z,5.10
2023-06-09T21:04:59.324Z,5.30
2023-06-09T21:07:26.576Z,5.30
2023-06-09T21:09:53.803Z,5.22
2023-06-09T21:12:21.070Z,5.25
2023-06-09T21:14:48.856Z,5.07
2023-06-09T21:17:16.074Z,5.03
2023-06-09T21:19:44.446Z,5.72
2023-06-09T21:22:11.984Z,5.60
2023-06-09T21:24:39.318Z,5.75
2023-06-09T21:27:06.729Z,4.93
2023-06-09T21:29:33.970Z,5.65
2023-06-09T21:32:01.307Z,5.00
2023-06-09T21:34:28.495Z,5.40
2023-06-09T21:36:55.720Z,5.45
2023-06-09T21:39:22.934Z,5.57
2023-06-09T21:41:50.819Z,5.97
2023-06-09T21:44:18.012Z,5.63
2023-06-09T21:46:45.592Z,5.53
2023-06-09T21:49:12.813Z,5.82
2023-06-09T21:51:39.977Z,5.18
2023-06-09T21:54:07.203Z,5.70
2023-06-09T21:56:34.484Z,5.93
2023-06-09T21:59:01.660Z,5.65
2023-06-09T22:01:28.881Z,5.20
2023-06-09T22:03:56.254Z,5.40
2023-06-09T22:06:24.287Z,5.13
2023-06-09T22:08:51.872Z,5.55
2023-06-09T22:11:19.184Z,5.10
2023-06-09T22:13:47.613Z,5.85
2023-06-09T22:16:14.859Z,5.22
2023-06-09T22:18:42.100Z,5.45
2023-06-09T22:21:10.178Z,4.65
2023-06-09T22:23:37.410Z,5.10
2023-06-09T22:26:04.649Z,4.80
2023-06-09T22:28:31.841Z,5.40
2023-06-09T22:30:59.065Z,5.40
2023-06-09T22:33:26.314Z,4.97
2023-06-09T22:35:53.487Z,5.45
2023-06-09T22:38:20.705Z,5.15
2023-06-09T22:40:49.768Z,4.80
2023-06-09T22:43:17.008Z,4.70
2023-06-09T22:45:44.234Z,4.50
2023-06-09T22:48:12.687Z,5.20
2023-06-09T22:50:40.658Z,5.60
2023-06-09T22:53:08.236Z,4.88
2023-06-09T22:55:35.804Z,4.90
2023-06-09T22:58:03.015Z,4.68
2023-06-09T23:00:30.450Z,4.68
2023-06-09T23:02:57.698Z,4.85
2023-06-09T23:05:35.681Z,4.18
2023-06-09T23:08:02.907Z,4.45
2023-06-09T23:10:31.026Z,4.72
2023-06-09T23:12:58.275Z,4.30
2023-06-09T23:15:25.943Z,4.60
2023-06-09T23:17:53.738Z,4.40
2023-06-09T23:20:21.896Z,4.53
2023-06-09T23:22:52.352Z,4.20
2023-06-09T23:25:19.697Z,3.92
2023-06-09T23:27:46.952Z,4.18
2023-06-09T23:30:15.585Z,4.15
2023-06-09T23:32:44.712Z,4.20
2023-06-09T23:35:12.852Z,4.15
2023-06-09T23:37:42.107Z,4.03
2023-06-09T23:40:10.697Z,4.10
2023-06-09T23:42:38.779Z,4.30
2023-06-09T23:45:06.266Z,4.55
2023-06-09T23:47:33.594Z,4.35
2023-06-09T23:50:01.095Z,3.97
2023-06-09T23:52:28.574Z,4.15
2023-06-09T23:54:57.346Z,3.92
2023-06-09T23:57:24.704Z,4.00
2023-06-09T23:59:51.884Z,4.10
